sensor_id;sensor_type;location;lat;lon;timestamp;pressure;altitude;pressure_sealevel;temperature;humidity
34065;BME280;20339;49.754;20.158;2023-04-27T00:01:30;96740.73;;;2.52;70.10
34065;BME280;20339;49.754;20.158;2023-04-27T00:04:03;96738.52;;;2.49;70.15
34065;BME280;20339;49.754;20.158;2023-04-27T00:06:35;96735.48;;;2.53;70.22
34065;BME280;20339;49.754;20.158;2023-04-27T00:09:06;96734.58;;;2.51;70.15
34065;BME280;20339;49.754;20.158;2023-04-27T00:11:37;96735.42;;;2.46;70.32
34065;BME280;20339;49.754;20.158;2023-04-27T00:14:08;96735.77;;;2.50;70.19
34065;BME280;20339;49.754;20.158;2023-04-27T00:16:39;96738.97;;;2.48;70.06
34065;BME280;20339;49.754;20.158;2023-04-27T00:19:10;96740.83;;;2.43;70.28
34065;BME280;20339;49.754;20.158;2023-04-27T00:21:42;96737.30;;;2.40;70.28
34065;BME280;20339;49.754;20.158;2023-04-27T00:24:13;96743.17;;;2.42;70.17
34065;BME280;20339;49.754;20.158;2023-04-27T00:26:44;96739.52;;;2.42;70.15
34065;BME280;20339;49.754;20.158;2023-04-27T00:29:15;96743.52;;;2.37;70.31
34065;BME280;20339;49.754;20.158;2023-04-27T00:31:46;96741.22;;;2.31;70.42
34065;BME280;20339;49.754;20.158;2023-04-27T00:34:17;96746.61;;;2.29;70.36
34065;BME280;20339;49.754;20.158;2023-04-27T00:36:48;96737.40;;;2.33;70.46
34065;BME280;20339;49.754;20.158;2023-04-27T00:39:19;96739.55;;;2.27;70.83
34065;BME280;20339;49.754;20.158;2023-04-27T00:41:58;96740.66;;;2.10;71.80
34065;BME280;20339;49.754;20.158;2023-04-27T00:44:29;96739.65;;;2.04;72.01
34065;BME280;20339;49.754;20.158;2023-04-27T00:47:01;96739.07;;;2.05;72.29
34065;BME280;20339;49.754;20.158;2023-04-27T00:49:32;96741.80;;;2.02;72.53
34065;BME280;20339;49.754;20.158;2023-04-27T00:52:04;96741.61;;;2.02;72.70
34065;BME280;20339;49.754;20.158;2023-04-27T00:54:35;96741.83;;;2.05;72.78
34065;BME280;20339;49.754;20.158;2023-04-27T00:57:06;96742.33;;;2.16;72.53
34065;BME280;20339;49.754;20.158;2023-04-27T00:59:38;96739.91;;;2.27;72.27
34065;BME280;20339;49.754;20.158;2023-04-27T01:02:09;96741.90;;;2.29;72.41
34065;BME280;20339;49.754;20.158;2023-04-27T01:04:42;96740.45;;;2.29;72.29
34065;BME280;20339;49.754;20.158;2023-04-27T01:07:13;96744.54;;;2.32;72.08
34065;BME280;20339;49.754;20.158;2023-04-27T01:09:44;96743.02;;;2.32;72.17
34065;BME280;20339;49.754;20.158;2023-04-27T01:12:16;96745.66;;;2.31;72.19
34065;BME280;20339;49.754;20.158;2023-04-27T01:14:47;96748.39;;;2.33;72.41
34065;BME280;20339;49.754;20.158;2023-04-27T01:17:20;96748.90;;;2.31;72.26
34065;BME280;20339;49.754;20.158;2023-04-27T01:19:52;96747.96;;;2.33;72.53
34065;BME280;20339;49.754;20.158;2023-04-27T01:22:24;96747.09;;;2.32;72.46
34065;BME280;20339;49.754;20.158;2023-04-27T01:24:55;96753.33;;;2.35;72.50
34065;BME280;20339;49.754;20.158;2023-04-27T01:27:26;96754.35;;;2.36;72.84
34065;BME280;20339;49.754;20.158;2023-04-27T01:29:57;96754.66;;;2.34;72.62
34065;BME280;20339;49.754;20.158;2023-04-27T01:32:28;96759.00;;;2.34;72.66
34065;BME280;20339;49.754;20.158;2023-04-27T01:34:59;96759.36;;;2.37;72.45
34065;BME280;20339;49.754;20.158;2023-04-27T01:37:30;96764.02;;;2.42;72.22
34065;BME280;20339;49.754;20.158;2023-04-27T01:40:01;96764.02;;;2.43;72.29
34065;BME280;20339;49.754;20.158;2023-04-27T01:42:33;96764.29;;;2.41;72.37
34065;BME280;20339;49.754;20.158;2023-04-27T01:45:05;96766.63;;;2.43;72.31
34065;BME280;20339;49.754;20.158;2023-04-27T01:47:36;96764.22;;;2.40;72.44
34065;BME280;20339;49.754;20.158;2023-04-27T01:50:08;96762.26;;;2.38;72.29
34065;BME280;20339;49.754;20.158;2023-04-27T01:52:40;96762.41;;;2.36;72.34
34065;BME280;20339;49.754;20.158;2023-04-27T01:55:11;96764.63;;;2.35;72.51
34065;BME280;20339;49.754;20.158;2023-04-27T01:57:42;96762.19;;;2.29;72.61
34065;BME280;20339;49.754;20.158;2023-04-27T02:00:14;96764.10;;;2.30;72.52
34065;BME280;20339;49.754;20.158;2023-04-27T02:02:46;96762.98;;;2.26;72.88
34065;BME280;20339;49.754;20.158;2023-04-27T02:05:19;96767.55;;;2.18;72.89
34065;BME280;20339;49.754;20.158;2023-04-27T02:07:51;96768.43;;;2.14;73.27
34065;BME280;20339;49.754;20.158;2023-04-27T02:10:22;96767.48;;;2.10;73.33
34065;BME280;20339;49.754;20.158;2023-04-27T02:12:53;96765.86;;;2.16;73.54
34065;BME280;20339;49.754;20.158;2023-04-27T02:15:25;96767.83;;;2.19;73.45
34065;BME280;20339;49.754;20.158;2023-04-27T02:17:56;96765.06;;;2.18;73.49
34065;BME280;20339;49.754;20.158;2023-04-27T02:20:28;96767.73;;;2.15;73.78
34065;BME280;20339;49.754;20.158;2023-04-27T02:22:59;96766.98;;;2.17;73.91
34065;BME280;20339;49.754;20.158;2023-04-27T02:25:30;96768.66;;;2.17;74.04
34065;BME280;20339;49.754;20.158;2023-04-27T02:28:01;96771.67;;;2.18;74.13
34065;BME280;20339;49.754;20.158;2023-04-27T02:30:32;96769.98;;;2.17;74.16
34065;BME280;20339;49.754;20.158;2023-04-27T02:33:03;96768.54;;;2.14;74.42
34065;BME280;20339;49.754;20.158;2023-04-27T02:35:34;96771.27;;;2.12;74.50
34065;BME280;20339;49.754;20.158;2023-04-27T02:38:05;96769.98;;;2.11;74.85
34065;BME280;20339;49.754;20.158;2023-04-27T02:40:36;96774.89;;;2.11;74.77
34065;BME280;20339;49.754;20.158;2023-04-27T02:43:07;96773.18;;;2.16;74.85
34065;BME280;20339;49.754;20.158;2023-04-27T02:45:39;96773.69;;;2.19;74.97
34065;BME280;20339;49.754;20.158;2023-04-27T02:48:10;96775.61;;;2.23;74.89
34065;BME280;20339;49.754;20.158;2023-04-27T02:50:42;96777.81;;;2.28;74.66
34065;BME280;20339;49.754;20.158;2023-04-27T02:53:14;96777.30;;;2.33;74.63
34065;BME280;20339;49.754;20.158;2023-04-27T02:55:47;96772.73;;;2.36;74.55
34065;BME280;20339;49.754;20.158;2023-04-27T02:58:18;96776.28;;;2.36;75.08
34065;BME280;20339;49.754;20.158;2023-04-27T03:00:54;96778.89;;;2.34;74.97
34065;BME280;20339;49.754;20.158;2023-04-27T03:03:25;96779.04;;;2.37;75.00
34065;BME280;20339;49.754;20.158;2023-04-27T03:05:56;96778.13;;;2.41;74.57
34065;BME280;20339;49.754;20.158;2023-04-27T03:08:27;96779.65;;;2.45;74.62
34065;BME280;20339;49.754;20.158;2023-04-27T03:10:58;96778.54;;;2.49;74.41
34065;BME280;20339;49.754;20.158;2023-04-27T03:13:29;96779.61;;;2.49;74.41
34065;BME280;20339;49.754;20.158;2023-04-27T03:16:00;96784.02;;;2.48;74.42
34065;BME280;20339;49.754;20.158;2023-04-27T03:18:31;96779.55;;;2.43;74.41
34065;BME280;20339;49.754;20.158;2023-04-27T03:21:07;96782.50;;;2.38;74.31
34065;BME280;20339;49.754;20.158;2023-04-27T03:23:38;96779.69;;;2.32;74.32
34065;BME280;20339;49.754;20.158;2023-04-27T03:26:11;96778.07;;;2.23;74.45
34065;BME280;20339;49.754;20.158;2023-04-27T03:28:42;96779.98;;;2.12;74.72
34065;BME280;20339;49.754;20.158;2023-04-27T03:31:14;96780.30;;;2.05;75.18
34065;BME280;20339;49.754;20.158;2023-04-27T03:33:45;96779.54;;;1.96;75.30
34065;BME280;20339;49.754;20.158;2023-04-27T03:36:16;96786.41;;;1.89;75.68
34065;BME280;20339;49.754;20.158;2023-04-27T03:38:46;96790.94;;;1.83;75.97
34065;BME280;20339;49.754;20.158;2023-04-27T03:41:17;96792.10;;;1.85;76.04
34065;BME280;20339;49.754;20.158;2023-04-27T03:43:49;96790.50;;;1.90;76.23
34065;BME280;20339;49.754;20.158;2023-04-27T03:46:22;96792.12;;;1.95;75.97
34065;BME280;20339;49.754;20.158;2023-04-27T03:48:52;96794.76;;;2.01;75.98
34065;BME280;20339;49.754;20.158;2023-04-27T03:51:24;96795.34;;;2.03;75.64
34065;BME280;20339;49.754;20.158;2023-04-27T03:53:55;96797.38;;;2.07;75.74
34065;BME280;20339;49.754;20.158;2023-04-27T03:56:26;96797.39;;;2.13;75.63
34065;BME280;20339;49.754;20.158;2023-04-27T03:58:57;96804.41;;;2.18;75.58
34065;BME280;20339;49.754;20.158;2023-04-27T04:01:28;96802.20;;;2.25;75.35
34065;BME280;20339;49.754;20.158;2023-04-27T04:03:59;96808.09;;;2.32;75.17
34065;BME280;20339;49.754;20.158;2023-04-27T04:06:30;96810.67;;;2.38;75.21
34065;BME280;20339;49.754;20.158;2023-04-27T04:09:01;96815.84;;;2.46;74.85
34065;BME280;20339;49.754;20.158;2023-04-27T04:11:33;96817.77;;;2.56;74.92
34065;BME280;20339;49.754;20.158;2023-04-27T04:14:04;96820.83;;;2.65;74.59
34065;BME280;20339;49.754;20.158;2023-04-27T04:16:35;96820.27;;;2.77;74.43
34065;BME280;20339;49.754;20.158;2023-04-27T04:19:06;96823.09;;;2.90;74.32
34065;BME280;20339;49.754;20.158;2023-04-27T04:21:37;96819.12;;;3.03;74.27
34065;BME280;20339;49.754;20.158;2023-04-27T04:24:09;96822.66;;;3.17;73.97
34065;BME280;20339;49.754;20.158;2023-04-27T04:26:40;96825.98;;;3.24;73.61
34065;BME280;20339;49.754;20.158;2023-04-27T04:29:11;96825.73;;;3.26;73.19
34065;BME280;20339;49.754;20.158;2023-04-27T04:31:42;96828.53;;;3.30;73.15
34065;BME280;20339;49.754;20.158;2023-04-27T04:34:13;96832.90;;;3.31;72.95
34065;BME280;20339;49.754;20.158;2023-04-27T04:36:44;96838.34;;;3.31;73.02
34065;BME280;20339;49.754;20.158;2023-04-27T04:39:15;96839.94;;;3.32;72.93
34065;BME280;20339;49.754;20.158;2023-04-27T04:41:46;96842.81;;;3.32;72.99
34065;BME280;20339;49.754;20.158;2023-04-27T04:44:19;96845.54;;;3.29;72.62
34065;BME280;20339;49.754;20.158;2023-04-27T04:46:50;96850.20;;;3.29;72.73
34065;BME280;20339;49.754;20.158;2023-04-27T04:49:21;96849.73;;;3.30;72.65
34065;BME280;20339;49.754;20.158;2023-04-27T04:51:55;96854.73;;;3.30;72.34
34065;BME280;20339;49.754;20.158;2023-04-27T04:54:26;96854.16;;;3.30;72.59
34065;BME280;20339;49.754;20.158;2023-04-27T04:56:57;96855.20;;;3.30;72.39
34065;BME280;20339;49.754;20.158;2023-04-27T04:59:31;96852.13;;;3.31;72.65
34065;BME280;20339;49.754;20.158;2023-04-27T05:02:02;96859.44;;;3.43;73.16
34065;BME280;20339;49.754;20.158;2023-04-27T05:04:33;96857.91;;;3.97;73.96
34065;BME280;20339;49.754;20.158;2023-04-27T05:07:04;96859.23;;;4.65;73.01
34065;BME280;20339;49.754;20.158;2023-04-27T05:09:36;96860.29;;;4.96;71.70
34065;BME280;20339;49.754;20.158;2023-04-27T05:12:07;96861.54;;;4.78;70.94
34065;BME280;20339;49.754;20.158;2023-04-27T05:14:38;96861.66;;;4.67;70.68
34065;BME280;20339;49.754;20.158;2023-04-27T05:17:09;96861.73;;;4.67;70.40
34065;BME280;20339;49.754;20.158;2023-04-27T05:19:40;96860.69;;;5.36;69.96
34065;BME280;20339;49.754;20.158;2023-04-27T05:22:11;96862.88;;;5.27;68.27
34065;BME280;20339;49.754;20.158;2023-04-27T05:24:42;96866.98;;;5.00;68.47
34065;BME280;20339;49.754;20.158;2023-04-27T05:27:14;96868.23;;;4.94;67.94
34065;BME280;20339;49.754;20.158;2023-04-27T05:29:45;96864.20;;;5.44;67.59
34065;BME280;20339;49.754;20.158;2023-04-27T05:32:16;96870.20;;;5.22;66.60
34065;BME280;20339;49.754;20.158;2023-04-27T05:34:46;96873.42;;;4.96;67.65
34065;BME280;20339;49.754;20.158;2023-04-27T05:37:17;96870.70;;;4.76;67.87
34065;BME280;20339;49.754;20.158;2023-04-27T05:39:48;96871.05;;;4.80;68.16
34065;BME280;20339;49.754;20.158;2023-04-27T05:42:19;96875.06;;;5.30;67.63
34065;BME280;20339;49.754;20.158;2023-04-27T05:44:50;96871.91;;;6.89;67.01
34065;BME280;20339;49.754;20.158;2023-04-27T05:47:21;96873.41;;;8.70;61.43
34065;BME280;20339;49.754;20.158;2023-04-27T05:49:52;96873.16;;;8.02;58.84
34065;BME280;20339;49.754;20.158;2023-04-27T05:52:23;96879.42;;;6.71;59.66
34065;BME280;20339;49.754;20.158;2023-04-27T05:54:59;96884.45;;;5.91;61.44
34065;BME280;20339;49.754;20.158;2023-04-27T05:57:30;96886.18;;;5.65;63.01
34065;BME280;20339;49.754;20.158;2023-04-27T06:00:01;96886.86;;;5.77;63.06
34065;BME280;20339;49.754;20.158;2023-04-27T06:02:37;96894.20;;;5.49;63.17
34065;BME280;20339;49.754;20.158;2023-04-27T06:05:09;96896.59;;;5.48;63.90
34065;BME280;20339;49.754;20.158;2023-04-27T06:07:40;96887.34;;;6.42;63.92
34065;BME280;20339;49.754;20.158;2023-04-27T06:10:13;96892.98;;;7.71;62.90
34065;BME280;20339;49.754;20.158;2023-04-27T06:12:44;96888.39;;;10.00;60.00
34065;BME280;20339;49.754;20.158;2023-04-27T06:15:16;96884.20;;;11.77;55.23
34065;BME280;20339;49.754;20.158;2023-04-27T06:17:47;96886.38;;;12.91;52.00
34065;BME280;20339;49.754;20.158;2023-04-27T06:20:18;96884.20;;;13.76;49.21
34065;BME280;20339;49.754;20.158;2023-04-27T06:22:49;96886.08;;;14.44;47.05
34065;BME280;20339;49.754;20.158;2023-04-27T06:25:20;96881.96;;;15.15;46.23
34065;BME280;20339;49.754;20.158;2023-04-27T06:27:51;96877.49;;;15.94;44.94
34065;BME280;20339;49.754;20.158;2023-04-27T06:30:22;96880.61;;;16.94;43.91
34065;BME280;20339;49.754;20.158;2023-04-27T06:32:53;96883.38;;;17.94;43.50
34065;BME280;20339;49.754;20.158;2023-04-27T06:35:24;96881.89;;;19.20;43.02
34065;BME280;20339;49.754;20.158;2023-04-27T06:37:55;96881.50;;;20.68;42.65
34065;BME280;20339;49.754;20.158;2023-04-27T06:40:27;96879.23;;;22.06;41.14
34065;BME280;20339;49.754;20.158;2023-04-27T06:42:58;96878.23;;;23.18;38.91
34065;BME280;20339;49.754;20.158;2023-04-27T06:45:29;96878.48;;;23.09;35.15
34065;BME280;20339;49.754;20.158;2023-04-27T06:48:00;96876.02;;;22.48;34.67
34065;BME280;20339;49.754;20.158;2023-04-27T06:50:31;96885.03;;;19.89;32.25
34065;BME280;20339;49.754;20.158;2023-04-27T06:53:02;96888.85;;;17.39;34.17
34065;BME280;20339;49.754;20.158;2023-04-27T06:55:33;96886.06;;;14.96;35.94
34065;BME280;20339;49.754;20.158;2023-04-27T06:58:04;96895.08;;;12.89;38.47
34065;BME280;20339;49.754;20.158;2023-04-27T07:00:35;96902.38;;;11.08;40.89
34065;BME280;20339;49.754;20.158;2023-04-27T07:03:06;96901.20;;;9.83;42.79
34065;BME280;20339;49.754;20.158;2023-04-27T07:05:37;96906.02;;;8.82;45.08
34065;BME280;20339;49.754;20.158;2023-04-27T07:08:08;96906.38;;;8.00;46.80
34065;BME280;20339;49.754;20.158;2023-04-27T07:10:39;96912.37;;;7.55;48.28
34065;BME280;20339;49.754;20.158;2023-04-27T07:13:10;96914.48;;;7.23;49.41
34065;BME280;20339;49.754;20.158;2023-04-27T07:15:41;96914.84;;;7.31;49.76
34065;BME280;20339;49.754;20.158;2023-04-27T07:18:12;96914.46;;;8.02;50.57
34065;BME280;20339;49.754;20.158;2023-04-27T07:20:43;96913.05;;;9.81;49.32
34065;BME280;20339;49.754;20.158;2023-04-27T07:23:14;96907.13;;;10.08;47.29
34065;BME280;20339;49.754;20.158;2023-04-27T07:25:45;96908.63;;;10.38;47.07
34065;BME280;20339;49.754;20.158;2023-04-27T07:28:17;96912.98;;;10.30;46.14
34065;BME280;20339;49.754;20.158;2023-04-27T07:30:48;96910.59;;;9.77;46.35
34065;BME280;20339;49.754;20.158;2023-04-27T07:33:19;96920.57;;;9.39;47.30
34065;BME280;20339;49.754;20.158;2023-04-27T07:35:50;96925.44;;;9.18;47.21
34065;BME280;20339;49.754;20.158;2023-04-27T07:38:22;96924.17;;;9.14;47.88
34065;BME280;20339;49.754;20.158;2023-04-27T07:40:53;96926.30;;;9.22;47.88
34065;BME280;20339;49.754;20.158;2023-04-27T07:43:24;96924.26;;;10.55;48.76
34065;BME280;20339;49.754;20.158;2023-04-27T07:45:56;96918.98;;;13.64;48.94
34065;BME280;20339;49.754;20.158;2023-04-27T07:48:27;96914.30;;;15.09;43.23
34065;BME280;20339;49.754;20.158;2023-04-27T07:50:59;96919.89;;;13.56;42.22
34065;BME280;20339;49.754;20.158;2023-04-27T07:53:30;96919.00;;;12.64;42.72
34065;BME280;20339;49.754;20.158;2023-04-27T07:56:01;96922.71;;;11.84;42.52
34065;BME280;20339;49.754;20.158;2023-04-27T07:58:35;96927.38;;;11.23;43.52
34065;BME280;20339;49.754;20.158;2023-04-27T08:01:06;96927.60;;;10.60;43.56
34065;BME280;20339;49.754;20.158;2023-04-27T08:03:37;96931.50;;;10.25;44.55
34065;BME280;20339;49.754;20.158;2023-04-27T08:06:08;96933.10;;;9.82;44.14
34065;BME280;20339;49.754;20.158;2023-04-27T08:08:39;96935.70;;;9.43;44.33
34065;BME280;20339;49.754;20.158;2023-04-27T08:11:11;96936.77;;;9.30;45.04
34065;BME280;20339;49.754;20.158;2023-04-27T08:13:42;96937.52;;;9.21;45.16
34065;BME280;20339;49.754;20.158;2023-04-27T08:16:13;96935.05;;;8.66;45.00
34065;BME280;20339;49.754;20.158;2023-04-27T08:18:45;96943.34;;;7.99;45.54
34065;BME280;20339;49.754;20.158;2023-04-27T08:21:16;96946.06;;;7.65;46.90
34065;BME280;20339;49.754;20.158;2023-04-27T08:23:47;96942.75;;;7.32;48.44
34065;BME280;20339;49.754;20.158;2023-04-27T08:26:18;96944.80;;;7.41;49.34
34065;BME280;20339;49.754;20.158;2023-04-27T08:28:49;96943.92;;;7.49;49.22
34065;BME280;20339;49.754;20.158;2023-04-27T08:31:20;96946.89;;;7.61;49.85
34065;BME280;20339;49.754;20.158;2023-04-27T08:33:51;96951.65;;;7.52;50.74
34065;BME280;20339;49.754;20.158;2023-04-27T08:36:23;96953.30;;;7.59;51.36
34065;BME280;20339;49.754;20.158;2023-04-27T08:38:55;96952.09;;;7.97;51.54
34065;BME280;20339;49.754;20.158;2023-04-27T08:41:26;96949.31;;;8.38;50.52
34065;BME280;20339;49.754;20.158;2023-04-27T08:43:57;96950.77;;;8.27;48.53
34065;BME280;20339;49.754;20.158;2023-04-27T08:46:28;96952.31;;;8.20;48.81
34065;BME280;20339;49.754;20.158;2023-04-27T08:49:00;96957.03;;;8.02;48.19
34065;BME280;20339;49.754;20.158;2023-04-27T08:51:32;96953.77;;;7.89;48.71
34065;BME280;20339;49.754;20.158;2023-04-27T08:54:04;96948.55;;;7.90;48.58
34065;BME280;20339;49.754;20.158;2023-04-27T08:56:35;96950.27;;;8.22;47.92
34065;BME280;20339;49.754;20.158;2023-04-27T08:59:13;96948.77;;;8.43;47.35
34065;BME280;20339;49.754;20.158;2023-04-27T09:01:46;96952.62;;;8.85;47.63
34065;BME280;20339;49.754;20.158;2023-04-27T09:04:17;96944.42;;;10.41;48.51
34065;BME280;20339;49.754;20.158;2023-04-27T09:06:48;96940.14;;;12.34;47.04
34065;BME280;20339;49.754;20.158;2023-04-27T09:09:23;96940.52;;;13.48;43.52
34065;BME280;20339;49.754;20.158;2023-04-27T09:11:54;96931.71;;;14.27;41.25
34065;BME280;20339;49.754;20.158;2023-04-27T09:14:25;96924.63;;;13.74;39.93
34065;BME280;20339;49.754;20.158;2023-04-27T09:16:57;96927.55;;;13.71;41.75
34065;BME280;20339;49.754;20.158;2023-04-27T09:19:30;96934.43;;;13.43;39.95
34065;BME280;20339;49.754;20.158;2023-04-27T09:22:10;96930.69;;;12.43;40.30
34065;BME280;20339;49.754;20.158;2023-04-27T09:24:51;96932.23;;;11.15;41.20
34065;BME280;20339;49.754;20.158;2023-04-27T09:27:23;96929.15;;;10.23;42.26
34065;BME280;20339;49.754;20.158;2023-04-27T09:29:54;96929.06;;;9.83;43.21
34065;BME280;20339;49.754;20.158;2023-04-27T09:32:25;96928.29;;;9.40;44.19
34065;BME280;20339;49.754;20.158;2023-04-27T09:34:56;96922.84;;;8.84;44.96
34065;BME280;20339;49.754;20.158;2023-04-27T09:37:27;96939.06;;;8.07;46.41
34065;BME280;20339;49.754;20.158;2023-04-27T09:39:59;96946.36;;;7.57;47.96
34065;BME280;20339;49.754;20.158;2023-04-27T09:42:32;96945.39;;;7.22;48.99
34065;BME280;20339;49.754;20.158;2023-04-27T09:45:04;96944.03;;;7.23;50.50
34065;BME280;20339;49.754;20.158;2023-04-27T09:47:36;96941.65;;;7.28;50.87
34065;BME280;20339;49.754;20.158;2023-04-27T09:50:10;96940.67;;;7.30;50.96
34065;BME280;20339;49.754;20.158;2023-04-27T09:52:42;96935.88;;;7.34;51.22
34065;BME280;20339;49.754;20.158;2023-04-27T09:55:16;96934.95;;;7.44;51.40
34065;BME280;20339;49.754;20.158;2023-04-27T09:57:53;96936.02;;;7.55;51.86
34065;BME280;20339;49.754;20.158;2023-04-27T10:00:40;96936.44;;;7.75;51.82
34065;BME280;20339;49.754;20.158;2023-04-27T10:03:22;96928.05;;;7.95;51.05
34065;BME280;20339;49.754;20.158;2023-04-27T10:09:13;96925.33;;;8.66;50.68
34065;BME280;20339;49.754;20.158;2023-04-27T10:11:45;96926.64;;;8.91;49.67
34065;BME280;20339;49.754;20.158;2023-04-27T10:14:19;96925.59;;;9.13;49.78
34065;BME280;20339;49.754;20.158;2023-04-27T10:16:53;96924.41;;;9.74;50.02
34065;BME280;20339;49.754;20.158;2023-04-27T10:19:25;96917.77;;;10.05;48.25
34065;BME280;20339;49.754;20.158;2023-04-27T10:21:57;96917.09;;;9.65;46.32
34065;BME280;20339;49.754;20.158;2023-04-27T10:24:38;96919.01;;;9.24;47.01
34065;BME280;20339;49.754;20.158;2023-04-27T10:27:11;96917.38;;;9.09;47.02
34065;BME280;20339;49.754;20.158;2023-04-27T10:29:48;96911.58;;;9.14;47.07
34065;BME280;20339;49.754;20.158;2023-04-27T10:32:25;96910.90;;;9.19;45.77
34065;BME280;20339;49.754;20.158;2023-04-27T10:35:09;96906.15;;;9.27;45.99
34065;BME280;20339;49.754;20.158;2023-04-27T10:37:41;96901.20;;;9.31;45.62
34065;BME280;20339;49.754;20.158;2023-04-27T10:40:16;96898.02;;;9.34;45.71
34065;BME280;20339;49.754;20.158;2023-04-27T10:42:48;96900.38;;;9.61;46.39
34065;BME280;20339;49.754;20.158;2023-04-27T10:45:28;96893.97;;;9.76;45.01
34065;BME280;20339;49.754;20.158;2023-04-27T10:48:00;96895.27;;;9.86;45.91
34065;BME280;20339;49.754;20.158;2023-04-27T10:50:32;96889.81;;;10.03;45.70
34065;BME280;20339;49.754;20.158;2023-04-27T10:53:04;96891.23;;;10.18;45.80
34065;BME280;20339;49.754;20.158;2023-04-27T10:55:36;96905.42;;;10.07;44.50
34065;BME280;20339;49.754;20.158;2023-04-27T10:58:07;96911.90;;;9.44;43.81
34065;BME280;20339;49.754;20.158;2023-04-27T11:00:39;96915.92;;;8.72;44.49
34065;BME280;20339;49.754;20.158;2023-04-27T11:03:14;96912.07;;;8.15;45.78
34065;BME280;20339;49.754;20.158;2023-04-27T11:05:47;96924.15;;;7.70;46.51
34065;BME280;20339;49.754;20.158;2023-04-27T11:08:19;96924.03;;;7.49;47.13
34065;BME280;20339;49.754;20.158;2023-04-27T11:10:51;96925.33;;;7.41;47.98
34065;BME280;20339;49.754;20.158;2023-04-27T11:13:23;96930.60;;;7.35;48.26
34065;BME280;20339;49.754;20.158;2023-04-27T11:15:58;96932.12;;;7.34;48.45
34065;BME280;20339;49.754;20.158;2023-04-27T11:18:32;96931.36;;;7.38;48.91
34065;BME280;20339;49.754;20.158;2023-04-27T11:21:10;96931.70;;;7.34;49.08
34065;BME280;20339;49.754;20.158;2023-04-27T11:23:42;96937.84;;;7.26;49.24
34065;BME280;20339;49.754;20.158;2023-04-27T11:26:14;96938.66;;;7.23;49.28
34065;BME280;20339;49.754;20.158;2023-04-27T11:28:55;96943.45;;;7.39;49.79
34065;BME280;20339;49.754;20.158;2023-04-27T11:31:36;96947.04;;;7.61;49.48
34065;BME280;20339;49.754;20.158;2023-04-27T11:34:08;96948.02;;;7.70;49.58
34065;BME280;20339;49.754;20.158;2023-04-27T11:36:39;96944.71;;;7.87;49.59
34065;BME280;20339;49.754;20.158;2023-04-27T11:39:16;96940.58;;;8.00;49.31
34065;BME280;20339;49.754;20.158;2023-04-27T11:41:48;96939.27;;;8.01;49.08
34065;BME280;20339;49.754;20.158;2023-04-27T11:44:25;96938.96;;;8.01;48.99
34065;BME280;20339;49.754;20.158;2023-04-27T11:46:57;96935.58;;;8.16;49.10
34065;BME280;20339;49.754;20.158;2023-04-27T11:49:30;96933.37;;;8.25;48.37
34065;BME280;20339;49.754;20.158;2023-04-27T11:52:03;96935.96;;;8.27;48.21
34065;BME280;20339;49.754;20.158;2023-04-27T11:54:34;96937.86;;;8.27;47.88
34065;BME280;20339;49.754;20.158;2023-04-27T11:57:07;96933.42;;;8.32;48.01
34065;BME280;20339;49.754;20.158;2023-04-27T11:59:39;96933.63;;;8.31;47.24
34065;BME280;20339;49.754;20.158;2023-04-27T12:02:11;96937.75;;;8.32;47.42
34065;BME280;20339;49.754;20.158;2023-04-27T12:04:42;96936.61;;;8.41;47.40
34065;BME280;20339;49.754;20.158;2023-04-27T12:07:13;96933.77;;;8.55;47.54
34065;BME280;20339;49.754;20.158;2023-04-27T12:09:45;96936.34;;;8.85;48.20
34065;BME280;20339;49.754;20.158;2023-04-27T12:12:16;96937.95;;;9.07;46.87
34065;BME280;20339;49.754;20.158;2023-04-27T12:14:48;96935.98;;;9.19;46.48
34065;BME280;20339;49.754;20.158;2023-04-27T12:17:19;96930.41;;;9.43;47.16
34065;BME280;20339;49.754;20.158;2023-04-27T12:19:51;96924.98;;;9.73;46.34
34065;BME280;20339;49.754;20.158;2023-04-27T12:22:22;96925.95;;;9.77;46.09
34065;BME280;20339;49.754;20.158;2023-04-27T12:24:53;96928.70;;;9.90;46.52
34065;BME280;20339;49.754;20.158;2023-04-27T12:27:24;96923.80;;;10.09;46.87
34065;BME280;20339;49.754;20.158;2023-04-27T12:29:56;96922.44;;;10.28;46.14
34065;BME280;20339;49.754;20.158;2023-04-27T12:32:28;96917.85;;;10.38;46.31
34065;BME280;20339;49.754;20.158;2023-04-27T12:34:59;96925.85;;;10.38;45.65
34065;BME280;20339;49.754;20.158;2023-04-27T12:37:30;96928.16;;;10.14;44.67
34065;BME280;20339;49.754;20.158;2023-04-27T12:40:01;96926.32;;;9.68;44.88
34065;BME280;20339;49.754;20.158;2023-04-27T12:42:36;96932.05;;;9.35;45.38
34065;BME280;20339;49.754;20.158;2023-04-27T12:45:08;96937.36;;;9.02;45.95
34065;BME280;20339;49.754;20.158;2023-04-27T12:47:39;96938.77;;;8.86;46.69
34065;BME280;20339;49.754;20.158;2023-04-27T12:50:11;96937.09;;;8.74;46.61
34065;BME280;20339;49.754;20.158;2023-04-27T12:52:44;96935.73;;;8.57;46.48
34065;BME280;20339;49.754;20.158;2023-04-27T12:55:15;96930.73;;;8.49;47.15
34065;BME280;20339;49.754;20.158;2023-04-27T12:57:46;96936.49;;;8.42;47.24
34065;BME280;20339;49.754;20.158;2023-04-27T13:00:18;96933.16;;;8.38;47.31
34065;BME280;20339;49.754;20.158;2023-04-27T13:02:49;96932.21;;;8.39;48.00
34065;BME280;20339;49.754;20.158;2023-04-27T13:05:21;96930.10;;;8.60;48.03
34065;BME280;20339;49.754;20.158;2023-04-27T13:07:52;96927.89;;;8.73;47.82
34065;BME280;20339;49.754;20.158;2023-04-27T13:10:23;96934.96;;;8.83;48.13
34065;BME280;20339;49.754;20.158;2023-04-27T13:12:54;96932.06;;;9.00;47.71
34065;BME280;20339;49.754;20.158;2023-04-27T13:15:26;96932.37;;;9.14;47.82
34065;BME280;20339;49.754;20.158;2023-04-27T13:17:58;96932.17;;;9.20;47.48
34065;BME280;20339;49.754;20.158;2023-04-27T13:20:30;96929.32;;;9.23;47.53
34065;BME280;20339;49.754;20.158;2023-04-27T13:23:01;96925.70;;;9.39;47.73
34065;BME280;20339;49.754;20.158;2023-04-27T13:25:33;96924.35;;;9.57;47.71